sensor_id;sensor_type;location;lat;lon;timestamp;P1;durP1;ratioP1;P2;durP2;ratioP2
14074;SDS011;12831;52.392;13.066;2023-05-17T00:02:06;6.35;;;2.30;;
14074;SDS011;12831;52.392;13.066;2023-05-17T00:04:32;8.48;;;3.10;;
14074;SDS011;12831;52.392;13.066;2023-05-17T00:06:58;12.25;;;2.35;;
14074;SDS011;12831;52.392;13.066;2023-05-17T00:09:24;5.88;;;2.15;;
14074;SDS011;12831;52.392;13.066;2023-05-17T00:11:50;6.65;;;1.60;;
14074;SDS011;12831;52.392;13.066;2023-05-17T00:14:15;9.98;;;2.58;;
14074;SDS011;12831;52.392;13.066;2023-05-17T00:16:41;11.20;;;2.50;;
14074;SDS011;12831;52.392;13.066;2023-05-17T00:19:07;6.65;;;2.35;;
14074;SDS011;12831;52.392;13.066;2023-05-17T00:21:36;6.70;;;3.00;;
14074;SDS011;12831;52.392;13.066;2023-05-17T00:24:02;12.15;;;3.05;;
14074;SDS011;12831;52.392;13.066;2023-05-17T00:26:28;7.63;;;2.13;;
14074;SDS011;12831;52.392;13.066;2023-05-17T00:28:54;8.20;;;2.60;;
14074;SDS011;12831;52.392;13.066;2023-05-17T00:31:20;8.00;;;2.85;;
14074;SDS011;12831;52.392;13.066;2023-05-17T00:33:45;13.05;;;3.13;;
14074;SDS011;12831;52.392;13.066;2023-05-17T00:36:12;5.50;;;2.60;;
14074;SDS011;12831;52.392;13.066;2023-05-17T00:38:38;11.88;;;3.17;;
14074;SDS011;12831;52.392;13.066;2023-05-17T00:41:03;8.18;;;2.38;;
14074;SDS011;12831;52.392;13.066;2023-05-17T00:43:29;4.85;;;2.20;;
14074;SDS011;12831;52.392;13.066;2023-05-17T00:45:55;11.13;;;3.20;;
14074;SDS011;12831;52.392;13.066;2023-05-17T00:48:21;15.38;;;3.35;;
14074;SDS011;12831;52.392;13.066;2023-05-17T00:50:53;8.00;;;2.40;;
14074;SDS011;12831;52.392;13.066;2023-05-17T00:53:20;17.40;;;3.40;;
14074;SDS011;12831;52.392;13.066;2023-05-17T00:55:46;18.02;;;3.03;;
14074;SDS011;12831;52.392;13.066;2023-05-17T00:58:12;14.85;;;2.78;;
14074;SDS011;12831;52.392;13.066;2023-05-17T01:00:38;14.32;;;2.85;;
14074;SDS011;12831;52.392;13.066;2023-05-17T01:03:04;9.35;;;2.88;;
14074;SDS011;12831;52.392;13.066;2023-05-17T01:05:30;17.48;;;3.60;;
14074;SDS011;12831;52.392;13.066;2023-05-17T01:07:56;7.82;;;2.67;;
14074;SDS011;12831;52.392;13.066;2023-05-17T01:10:27;6.53;;;2.20;;
14074;SDS011;12831;52.392;13.066;2023-05-17T01:13:07;15.30;;;3.80;;
14074;SDS011;12831;52.392;13.066;2023-05-17T01:15:36;15.75;;;3.55;;
14074;SDS011;12831;52.392;13.066;2023-05-17T01:20:48;10.43;;;2.88;;
14074;SDS011;12831;52.392;13.066;2023-05-17T01:23:26;8.82;;;2.50;;
14074;SDS011;12831;52.392;13.066;2023-05-17T01:28:19;9.07;;;3.28;;
14074;SDS011;12831;52.392;13.066;2023-05-17T01:30:46;5.57;;;2.60;;
14074;SDS011;12831;52.392;13.066;2023-05-17T01:33:12;14.05;;;4.13;;
14074;SDS011;12831;52.392;13.066;2023-05-17T01:35:38;9.95;;;3.30;;
14074;SDS011;12831;52.392;13.066;2023-05-17T01:38:04;8.95;;;2.72;;
14074;SDS011;12831;52.392;13.066;2023-05-17T01:40:31;10.75;;;3.47;;
14074;SDS011;12831;52.392;13.066;2023-05-17T01:43:03;11.60;;;3.22;;
14074;SDS011;12831;52.392;13.066;2023-05-17T01:45:30;8.23;;;3.53;;
14074;SDS011;12831;52.392;13.066;2023-05-17T01:48:19;8.88;;;2.35;;
14074;SDS011;12831;52.392;13.066;2023-05-17T01:50:48;20.02;;;3.05;;
14074;SDS011;12831;52.392;13.066;2023-05-17T01:53:28;13.05;;;3.40;;
14074;SDS011;12831;52.392;13.066;2023-05-17T01:56:06;14.00;;;4.22;;
14074;SDS011;12831;52.392;13.066;2023-05-17T01:58:40;8.38;;;3.63;;
14074;SDS011;12831;52.392;13.066;2023-05-17T02:01:08;11.82;;;4.05;;
14074;SDS011;12831;52.392;13.066;2023-05-17T02:03:34;10.50;;;3.50;;
14074;SDS011;12831;52.392;13.066;2023-05-17T02:06:00;9.05;;;3.47;;
14074;SDS011;12831;52.392;13.066;2023-05-17T02:08:26;9.68;;;2.95;;
14074;SDS011;12831;52.392;13.066;2023-05-17T02:10:52;10.48;;;3.50;;
14074;SDS011;12831;52.392;13.066;2023-05-17T02:13:18;11.18;;;3.25;;
14074;SDS011;12831;52.392;13.066;2023-05-17T02:15:43;10.43;;;3.08;;
14074;SDS011;12831;52.392;13.066;2023-05-17T02:18:09;11.43;;;4.45;;
14074;SDS011;12831;52.392;13.066;2023-05-17T02:20:36;10.98;;;3.65;;
14074;SDS011;12831;52.392;13.066;2023-05-17T02:23:02;18.05;;;3.60;;
14074;SDS011;12831;52.392;13.066;2023-05-17T02:25:27;13.85;;;3.35;;
14074;SDS011;12831;52.392;13.066;2023-05-17T02:27:53;13.00;;;3.63;;
14074;SDS011;12831;52.392;13.066;2023-05-17T02:30:19;12.90;;;3.30;;
14074;SDS011;12831;52.392;13.066;2023-05-17T02:32:47;10.40;;;3.20;;
14074;SDS011;12831;52.392;13.066;2023-05-17T02:35:13;8.82;;;3.83;;
14074;SDS011;12831;52.392;13.066;2023-05-17T02:37:39;8.07;;;3.08;;
14074;SDS011;12831;52.392;13.066;2023-05-17T02:40:05;8.63;;;3.10;;
14074;SDS011;12831;52.392;13.066;2023-05-17T02:42:36;10.02;;;2.97;;
14074;SDS011;12831;52.392;13.066;2023-05-17T02:45:03;12.02;;;3.40;;
14074;SDS011;12831;52.392;13.066;2023-05-17T02:47:28;11.25;;;3.25;;
14074;SDS011;12831;52.392;13.066;2023-05-17T02:49:54;10.77;;;4.47;;
14074;SDS011;12831;52.392;13.066;2023-05-17T02:52:20;9.13;;;3.38;;
14074;SDS011;12831;52.392;13.066;2023-05-17T02:54:46;16.55;;;3.80;;
14074;SDS011;12831;52.392;13.066;2023-05-17T02:57:12;11.95;;;3.92;;
14074;SDS011;12831;52.392;13.066;2023-05-17T02:59:38;12.35;;;3.90;;
14074;SDS011;12831;52.392;13.066;2023-05-17T03:02:04;8.43;;;2.47;;
14074;SDS011;12831;52.392;13.066;2023-05-17T03:04:31;14.10;;;3.00;;
14074;SDS011;12831;52.392;13.066;2023-05-17T03:06:58;11.70;;;4.05;;
14074;SDS011;12831;52.392;13.066;2023-05-17T03:09:23;9.98;;;3.40;;
14074;SDS011;12831;52.392;13.066;2023-05-17T03:11:49;7.28;;;3.95;;
14074;SDS011;12831;52.392;13.066;2023-05-17T03:14:15;13.98;;;3.67;;
14074;SDS011;12831;52.392;13.066;2023-05-17T03:16:41;7.32;;;3.10;;
14074;SDS011;12831;52.392;13.066;2023-05-17T03:19:07;11.63;;;4.10;;
14074;SDS011;12831;52.392;13.066;2023-05-17T03:21:33;18.50;;;4.15;;
14074;SDS011;12831;52.392;13.066;2023-05-17T03:23:58;9.70;;;3.40;;
14074;SDS011;12831;52.392;13.066;2023-05-17T03:26:24;9.65;;;3.20;;
14074;SDS011;12831;52.392;13.066;2023-05-17T03:28:52;10.63;;;3.25;;
14074;SDS011;12831;52.392;13.066;2023-05-17T03:31:18;10.25;;;2.83;;
14074;SDS011;12831;52.392;13.066;2023-05-17T03:33:44;13.85;;;3.38;;
14074;SDS011;12831;52.392;13.066;2023-05-17T03:36:10;13.18;;;3.20;;
14074;SDS011;12831;52.392;13.066;2023-05-17T03:38:36;9.48;;;3.08;;
14074;SDS011;12831;52.392;13.066;2023-05-17T03:41:02;8.75;;;3.42;;
14074;SDS011;12831;52.392;13.066;2023-05-17T03:43:28;10.40;;;3.85;;
14074;SDS011;12831;52.392;13.066;2023-05-17T03:45:54;13.23;;;3.88;;
14074;SDS011;12831;52.392;13.066;2023-05-17T03:48:20;7.65;;;2.78;;
14074;SDS011;12831;52.392;13.066;2023-05-17T03:50:46;13.43;;;4.45;;
14074;SDS011;12831;52.392;13.066;2023-05-17T03:53:11;9.45;;;3.58;;
14074;SDS011;12831;52.392;13.066;2023-05-17T03:55:37;9.88;;;3.42;;
14074;SDS011;12831;52.392;13.066;2023-05-17T03:58:03;7.50;;;3.53;;
14074;SDS011;12831;52.392;13.066;2023-05-17T04:00:29;10.57;;;3.50;;
14074;SDS011;12831;52.392;13.066;2023-05-17T04:02:55;10.30;;;3.80;;
14074;SDS011;12831;52.392;13.066;2023-05-17T04:05:21;8.48;;;3.22;;
14074;SDS011;12831;52.392;13.066;2023-05-17T04:07:47;12.90;;;3.53;;
14074;SDS011;12831;52.392;13.066;2023-05-17T04:10:12;11.70;;;4.43;;
14074;SDS011;12831;52.392;13.066;2023-05-17T04:12:38;9.32;;;3.33;;
14074;SDS011;12831;52.392;13.066;2023-05-17T04:15:04;6.35;;;3.22;;
14074;SDS011;12831;52.392;13.066;2023-05-17T04:17:30;10.27;;;3.47;;
14074;SDS011;12831;52.392;13.066;2023-05-17T04:19:56;26.50;;;4.03;;
14074;SDS011;12831;52.392;13.066;2023-05-17T04:22:22;8.32;;;3.38;;
14074;SDS011;12831;52.392;13.066;2023-05-17T04:24:48;9.57;;;3.35;;
14074;SDS011;12831;52.392;13.066;2023-05-17T04:27:13;6.85;;;2.75;;
14074;SDS011;12831;52.392;13.066;2023-05-17T04:29:39;10.35;;;3.28;;
14074;SDS011;12831;52.392;13.066;2023-05-17T04:32:06;9.63;;;3.15;;
14074;SDS011;12831;52.392;13.066;2023-05-17T04:34:32;9.25;;;3.20;;
14074;SDS011;12831;52.392;13.066;2023-05-17T04:36:57;14.23;;;4.75;;
14074;SDS011;12831;52.392;13.066;2023-05-17T04:39:23;10.13;;;3.05;;
14074;SDS011;12831;52.392;13.066;2023-05-17T04:41:49;12.13;;;3.22;;
14074;SDS011;12831;52.392;13.066;2023-05-17T04:44:16;8.43;;;3.38;;
14074;SDS011;12831;52.392;13.066;2023-05-17T04:46:42;9.90;;;3.17;;
14074;SDS011;12831;52.392;13.066;2023-05-17T04:49:08;8.90;;;2.92;;
14074;SDS011;12831;52.392;13.066;2023-05-17T04:51:34;12.38;;;3.55;;
14074;SDS011;12831;52.392;13.066;2023-05-17T04:54:00;13.68;;;3.55;;
14074;SDS011;12831;52.392;13.066;2023-05-17T04:56:27;9.77;;;3.60;;
14074;SDS011;12831;52.392;13.066;2023-05-17T04:58:53;9.00;;;3.30;;
14074;SDS011;12831;52.392;13.066;2023-05-17T05:01:19;8.98;;;2.90;;
14074;SDS011;12831;52.392;13.066;2023-05-17T05:03:46;12.35;;;3.63;;
14074;SDS011;12831;52.392;13.066;2023-05-17T05:06:12;8.35;;;3.08;;
14074;SDS011;12831;52.392;13.066;2023-05-17T05:08:37;12.05;;;3.63;;
14074;SDS011;12831;52.392;13.066;2023-05-17T05:11:04;8.85;;;3.08;;
14074;SDS011;12831;52.392;13.066;2023-05-17T05:13:36;10.65;;;3.58;;
14074;SDS011;12831;52.392;13.066;2023-05-17T05:16:04;13.68;;;3.45;;
14074;SDS011;12831;52.392;13.066;2023-05-17T05:18:30;10.00;;;3.75;;
14074;SDS011;12831;52.392;13.066;2023-05-17T05:20:56;9.93;;;2.75;;
14074;SDS011;12831;52.392;13.066;2023-05-17T05:23:22;8.77;;;3.10;;
14074;SDS011;12831;52.392;13.066;2023-05-17T05:25:48;9.70;;;3.47;;
14074;SDS011;12831;52.392;13.066;2023-05-17T05:28:16;11.82;;;3.55;;
14074;SDS011;12831;52.392;13.066;2023-05-17T05:30:42;8.10;;;3.15;;
14074;SDS011;12831;52.392;13.066;2023-05-17T05:33:08;9.73;;;2.70;;
14074;SDS011;12831;52.392;13.066;2023-05-17T05:35:34;8.23;;;2.30;;
14074;SDS011;12831;52.392;13.066;2023-05-17T05:38:00;8.80;;;3.10;;
14074;SDS011;12831;52.392;13.066;2023-05-17T05:40:26;12.40;;;3.08;;
14074;SDS011;12831;52.392;13.066;2023-05-17T05:42:53;11.77;;;3.30;;
14074;SDS011;12831;52.392;13.066;2023-05-17T05:45:19;8.05;;;2.70;;
14074;SDS011;12831;52.392;13.066;2023-05-17T05:47:46;13.00;;;3.33;;
14074;SDS011;12831;52.392;13.066;2023-05-17T05:50:12;11.57;;;3.55;;
14074;SDS011;12831;52.392;13.066;2023-05-17T05:52:38;13.18;;;3.33;;
14074;SDS011;12831;52.392;13.066;2023-05-17T05:55:05;9.07;;;3.00;;
14074;SDS011;12831;52.392;13.066;2023-05-17T05:57:31;9.98;;;3.63;;
14074;SDS011;12831;52.392;13.066;2023-05-17T05:59:59;10.02;;;2.78;;
14074;SDS011;12831;52.392;13.066;2023-05-17T06:02:26;10.68;;;2.83;;
14074;SDS011;12831;52.392;13.066;2023-05-17T06:04:52;13.23;;;3.70;;
14074;SDS011;12831;52.392;13.066;2023-05-17T06:07:18;12.45;;;3.55;;
14074;SDS011;12831;52.392;13.066;2023-05-17T06:09:45;9.30;;;3.30;;
14074;SDS011;12831;52.392;13.066;2023-05-17T06:12:11;9.63;;;2.58;;
14074;SDS011;12831;52.392;13.066;2023-05-17T06:14:37;11.07;;;2.67;;
14074;SDS011;12831;52.392;13.066;2023-05-17T06:17:03;12.60;;;2.70;;
14074;SDS011;12831;52.392;13.066;2023-05-17T06:19:29;8.18;;;2.58;;
14074;SDS011;12831;52.392;13.066;2023-05-17T06:21:56;12.05;;;2.80;;
14074;SDS011;12831;52.392;13.066;2023-05-17T06:24:22;10.95;;;2.67;;
14074;SDS011;12831;52.392;13.066;2023-05-17T06:26:48;12.32;;;2.63;;
14074;SDS011;12831;52.392;13.066;2023-05-17T06:29:14;12.07;;;2.70;;
14074;SDS011;12831;52.392;13.066;2023-05-17T06:31:40;11.07;;;2.58;;
14074;SDS011;12831;52.392;13.066;2023-05-17T06:34:06;11.38;;;2.95;;
14074;SDS011;12831;52.392;13.066;2023-05-17T06:36:33;13.18;;;3.58;;
14074;SDS011;12831;52.392;13.066;2023-05-17T06:39:00;12.02;;;2.53;;
14074;SDS011;12831;52.392;13.066;2023-05-17T06:41:26;10.40;;;2.72;;
14074;SDS011;12831;52.392;13.066;2023-05-17T06:43:55;11.57;;;3.17;;
14074;SDS011;12831;52.392;13.066;2023-05-17T06:46:21;10.55;;;2.45;;
14074;SDS011;12831;52.392;13.066;2023-05-17T06:48:47;12.90;;;2.70;;
14074;SDS011;12831;52.392;13.066;2023-05-17T06:51:16;19.90;;;4.03;;
14074;SDS011;12831;52.392;13.066;2023-05-17T06:53:42;7.43;;;3.28;;
14074;SDS011;12831;52.392;13.066;2023-05-17T06:56:08;10.02;;;3.17;;
14074;SDS011;12831;52.392;13.066;2023-05-17T06:58:34;20.38;;;3.83;;
14074;SDS011;12831;52.392;13.066;2023-05-17T07:01:01;15.75;;;2.50;;
14074;SDS011;12831;52.392;13.066;2023-05-17T07:03:28;15.23;;;2.67;;
14074;SDS011;12831;52.392;13.066;2023-05-17T07:05:54;7.97;;;2.55;;
14074;SDS011;12831;52.392;13.066;2023-05-17T07:08:20;10.30;;;2.10;;
14074;SDS011;12831;52.392;13.066;2023-05-17T07:10:46;14.27;;;2.63;;
14074;SDS011;12831;52.392;13.066;2023-05-17T07:13:30;7.00;;;2.15;;
14074;SDS011;12831;52.392;13.066;2023-05-17T07:15:56;10.60;;;1.88;;
14074;SDS011;12831;52.392;13.066;2023-05-17T07:18:23;9.38;;;2.47;;
14074;SDS011;12831;52.392;13.066;2023-05-17T07:20:49;11.70;;;2.13;;
14074;SDS011;12831;52.392;13.066;2023-05-17T07:23:15;21.17;;;1.92;;
14074;SDS011;12831;52.392;13.066;2023-05-17T07:25:41;13.35;;;3.13;;
14074;SDS011;12831;52.392;13.066;2023-05-17T07:28:08;6.97;;;2.00;;
14074;SDS011;12831;52.392;13.066;2023-05-17T07:30:34;7.25;;;2.67;;
14074;SDS011;12831;52.392;13.066;2023-05-17T07:33:01;9.30;;;2.55;;
14074;SDS011;12831;52.392;13.066;2023-05-17T07:35:27;7.63;;;1.83;;
14074;SDS011;12831;52.392;13.066;2023-05-17T07:37:53;9.88;;;3.08;;
14074;SDS011;12831;52.392;13.066;2023-05-17T07:40:19;14.02;;;2.25;;
14074;SDS011;12831;52.392;13.066;2023-05-17T07:43:04;5.68;;;2.35;;
14074;SDS011;12831;52.392;13.066;2023-05-17T07:45:30;8.77;;;2.15;;
14074;SDS011;12831;52.392;13.066;2023-05-17T07:47:57;6.75;;;1.70;;
14074;SDS011;12831;52.392;13.066;2023-05-17T07:50:23;7.18;;;1.70;;
14074;SDS011;12831;52.392;13.066;2023-05-17T07:52:49;7.97;;;2.17;;
14074;SDS011;12831;52.392;13.066;2023-05-17T07:55:19;13.43;;;2.07;;
14074;SDS011;12831;52.392;13.066;2023-05-17T07:57:46;9.05;;;2.35;;
14074;SDS011;12831;52.392;13.066;2023-05-17T08:00:13;8.35;;;1.80;;
14074;SDS011;12831;52.392;13.066;2023-05-17T08:02:39;7.10;;;2.10;;
14074;SDS011;12831;52.392;13.066;2023-05-17T08:05:05;9.00;;;1.80;;
14074;SDS011;12831;52.392;13.066;2023-05-17T08:07:33;8.02;;;1.80;;
14074;SDS011;12831;52.392;13.066;2023-05-17T08:09:59;12.73;;;3.20;;
14074;SDS011;12831;52.392;13.066;2023-05-17T08:12:24;13.02;;;3.15;;
14074;SDS011;12831;52.392;13.066;2023-05-17T08:17:41;8.50;;;1.77;;
14074;SDS011;12831;52.392;13.066;2023-05-17T08:20:08;10.82;;;3.03;;
14074;SDS011;12831;52.392;13.066;2023-05-17T08:22:34;12.02;;;2.95;;
14074;SDS011;12831;52.392;13.066;2023-05-17T08:25:02;13.05;;;2.25;;
14074;SDS011;12831;52.392;13.066;2023-05-17T08:27:28;10.57;;;1.80;;
14074;SDS011;12831;52.392;13.066;2023-05-17T08:29:59;6.38;;;2.47;;
14074;SDS011;12831;52.392;13.066;2023-05-17T08:32:25;10.45;;;2.40;;
14074;SDS011;12831;52.392;13.066;2023-05-17T08:34:52;12.55;;;1.77;;
14074;SDS011;12831;52.392;13.066;2023-05-17T08:37:18;10.02;;;2.00;;
14074;SDS011;12831;52.392;13.066;2023-05-17T08:39:44;9.15;;;2.22;;
14074;SDS011;12831;52.392;13.066;2023-05-17T08:42:10;7.55;;;2.25;;
14074;SDS011;12831;52.392;13.066;2023-05-17T08:44:36;13.80;;;2.92;;
14074;SDS011;12831;52.392;13.066;2023-05-17T08:47:03;11.57;;;2.63;;
14074;SDS011;12831;52.392;13.066;2023-05-17T08:49:31;9.30;;;3.00;;
14074;SDS011;12831;52.392;13.066;2023-05-17T08:51:59;12.07;;;2.58;;
14074;SDS011;12831;52.392;13.066;2023-05-17T08:54:26;17.25;;;3.75;;
14074;SDS011;12831;52.392;13.066;2023-05-17T08:56:57;9.55;;;2.20;;
14074;SDS011;12831;52.392;13.066;2023-05-17T08:59:24;8.82;;;2.33;;
14074;SDS011;12831;52.392;13.066;2023-05-17T09:01:51;11.48;;;1.92;;
14074;SDS011;12831;52.392;13.066;2023-05-17T09:04:18;7.53;;;1.98;;
14074;SDS011;12831;52.392;13.066;2023-05-17T09:06:44;6.47;;;2.30;;
14074;SDS011;12831;52.392;13.066;2023-05-17T09:09:10;7.75;;;2.47;;
14074;SDS011;12831;52.392;13.066;2023-05-17T09:11:36;7.28;;;2.03;;
14074;SDS011;12831;52.392;13.066;2023-05-17T09:14:06;9.27;;;2.00;;
14074;SDS011;12831;52.392;13.066;2023-05-17T09:16:33;9.75;;;1.42;;
14074;SDS011;12831;52.392;13.066;2023-05-17T09:19:03;9.18;;;1.90;;
14074;SDS011;12831;52.392;13.066;2023-05-17T09:21:29;10.50;;;2.22;;
14074;SDS011;12831;52.392;13.066;2023-05-17T09:23:56;12.80;;;1.90;;
14074;SDS011;12831;52.392;13.066;2023-05-17T09:26:43;11.93;;;2.45;;
14074;SDS011;12831;52.392;13.066;2023-05-17T09:29:14;15.20;;;2.10;;
14074;SDS011;12831;52.392;13.066;2023-05-17T09:34:06;12.10;;;1.90;;
14074;SDS011;12831;52.392;13.066;2023-05-17T09:36:36;13.40;;;2.22;;
14074;SDS011;12831;52.392;13.066;2023-05-17T09:39:03;9.87;;;2.03;;
14074;SDS011;12831;52.392;13.066;2023-05-17T09:44:08;8.35;;;1.73;;
14074;SDS011;12831;52.392;13.066;2023-05-17T09:46:34;9.85;;;2.42;;
14074;SDS011;12831;52.392;13.066;2023-05-17T09:49:01;8.77;;;1.73;;
14074;SDS011;12831;52.392;13.066;2023-05-17T09:53:57;6.88;;;1.60;;
14074;SDS011;12831;52.392;13.066;2023-05-17T09:56:26;9.07;;;2.35;;
14074;SDS011;12831;52.392;13.066;2023-05-17T09:58:52;8.65;;;1.95;;
14074;SDS011;12831;52.392;13.066;2023-05-17T10:01:18;9.18;;;1.67;;
14074;SDS011;12831;52.392;13.066;2023-05-17T10:03:45;10.60;;;2.08;;
14074;SDS011;12831;52.392;13.066;2023-05-17T10:06:11;10.40;;;2.10;;
14074;SDS011;12831;52.392;13.066;2023-05-17T10:08:54;6.40;;;1.88;;
14074;SDS011;12831;52.392;13.066;2023-05-17T10:11:22;9.05;;;2.00;;
14074;SDS011;12831;52.392;13.066;2023-05-17T10:13:51;8.55;;;2.70;;
14074;SDS011;12831;52.392;13.066;2023-05-17T10:16:19;11.80;;;1.67;;
14074;SDS011;12831;52.392;13.066;2023-05-17T10:18:46;9.80;;;2.13;;
14074;SDS011;12831;52.392;13.066;2023-05-17T10:21:14;9.35;;;2.15;;
14074;SDS011;12831;52.392;13.066;2023-05-17T10:23:42;8.35;;;1.90;;
14074;SDS011;12831;52.392;13.066;2023-05-17T10:26:09;11.52;;;2.60;;
14074;SDS011;12831;52.392;13.066;2023-05-17T10:28:36;10.77;;;2.63;;
14074;SDS011;12831;52.392;13.066;2023-05-17T10:31:02;9.88;;;2.85;;
14074;SDS011;12831;52.392;13.066;2023-05-17T10:33:30;5.82;;;1.73;;
14074;SDS011;12831;52.392;13.066;2023-05-17T10:35:57;7.82;;;1.70;;
14074;SDS011;12831;52.392;13.066;2023-05-17T10:38:24;7.35;;;1.33;;
14074;SDS011;12831;52.392;13.066;2023-05-17T10:41:06;4.80;;;1.40;;
14074;SDS011;12831;52.392;13.066;2023-05-17T10:43:45;8.65;;;1.67;;
14074;SDS011;12831;52.392;13.066;2023-05-17T10:46:14;9.98;;;2.08;;
14074;SDS011;12831;52.392;13.066;2023-05-17T10:48:40;7.43;;;1.58;;
14074;SDS011;12831;52.392;13.066;2023-05-17T10:51:06;4.90;;;1.50;;
14074;SDS011;12831;52.392;13.066;2023-05-17T10:53:32;11.60;;;2.00;;
14074;SDS011;12831;52.392;13.066;2023-05-17T10:55:59;6.35;;;1.27;;
14074;SDS011;12831;52.392;13.066;2023-05-17T10:58:25;7.60;;;2.20;;
14074;SDS011;12831;52.392;13.066;2023-05-17T11:00:51;12.45;;;2.47;;
14074;SDS011;12831;52.392;13.066;2023-05-17T11:03:24;11.67;;;2.70;;
14074;SDS011;12831;52.392;13.066;2023-05-17T11:09:29;5.50;;;1.60;;
14074;SDS011;12831;52.392;13.066;2023-05-17T11:11:37;8.88;;;1.85;;
14074;SDS011;12831;52.392;13.066;2023-05-17T11:14:57;7.18;;;1.88;;
14074;SDS011;12831;52.392;13.066;2023-05-17T11:17:19;4.93;;;1.48;;
14074;SDS011;12831;52.392;13.066;2023-05-17T11:22:38;9.02;;;2.70;;
14074;SDS011;12831;52.392;13.066;2023-05-17T11:25:05;9.98;;;2.80;;
14074;SDS011;12831;52.392;13.066;2023-05-17T11:27:36;7.03;;;1.65;;
14074;SDS011;12831;52.392;13.066;2023-05-17T11:30:14;8.32;;;1.23;;
14074;SDS011;12831;52.392;13.066;2023-05-17T11:32:44;10.40;;;2.20;;
14074;SDS011;12831;52.392;13.066;2023-05-17T11:37:37;6.32;;;2.47;;
14074;SDS011;12831;52.392;13.066;2023-05-17T11:40:04;5.90;;;2.13;;
14074;SDS011;12831;52.392;13.066;2023-05-17T11:42:31;9.10;;;2.00;;
14074;SDS011;12831;52.392;13.066;2023-05-17T11:44:59;12.07;;;1.80;;
14074;SDS011;12831;52.392;13.066;2023-05-17T11:47:26;10.82;;;2.88;;
14074;SDS011;12831;52.392;13.066;2023-05-17T11:49:54;8.30;;;1.65;;
14074;SDS011;12831;52.392;13.066;2023-05-17T11:52:21;10.77;;;2.40;;
14074;SDS011;12831;52.392;13.066;2023-05-17T11:54:48;6.80;;;1.50;;
14074;SDS011;12831;52.392;13.066;2023-05-17T11:57:14;8.32;;;2.22;;
14074;SDS011;12831;52.392;13.066;2023-05-17T11:59:43;5.55;;;1.92;;
14074;SDS011;12831;52.392;13.066;2023-05-17T12:02:09;8.07;;;1.55;;
14074;SDS011;12831;52.392;13.066;2023-05-17T12:04:35;6.10;;;1.85;;
14074;SDS011;12831;52.392;13.066;2023-05-17T12:07:02;16.10;;;2.60;;
14074;SDS011;12831;52.392;13.066;2023-05-17T12:09:29;8.23;;;1.70;;
14074;SDS011;12831;52.392;13.066;2023-05-17T12:11:55;7.93;;;2.30;;
14074;SDS011;12831;52.392;13.066;2023-05-17T12:14:21;8.05;;;2.30;;
14074;SDS011;12831;52.392;13.066;2023-05-17T12:16:52;4.60;;;1.40;;
14074;SDS011;12831;52.392;13.066;2023-05-17T12:19:21;7.85;;;1.70;;
14074;SDS011;12831;52.392;13.066;2023-05-17T12:21:48;5.80;;;2.47;;
14074;SDS011;12831;52.392;13.066;2023-05-17T12:24:14;7.18;;;2.13;;
14074;SDS011;12831;52.392;13.066;2023-05-17T12:26:42;6.43;;;1.88;;
14074;SDS011;12831;52.392;13.066;2023-05-17T12:29:09;9.13;;;2.67;;
14074;SDS011;12831;52.392;13.066;2023-05-17T12:31:41;5.85;;;1.88;;
14074;SDS011;12831;52.392;13.066;2023-05-17T12:34:08;7.20;;;1.60;;
14074;SDS011;12831;52.392;13.066;2023-05-17T12:36:37;6.15;;;1.95;;
14074;SDS011;12831;52.392;13.066;2023-05-17T12:39:03;5.22;;;1.20;;
14074;SDS011;12831;52.392;13.066;2023-05-17T12:41:31;8.57;;;1.42;;
14074;SDS011;12831;52.392;13.066;2023-05-17T12:44:03;10.48;;;2.42;;
14074;SDS011;12831;52.392;13.066;2023-05-17T12:46:41;12.48;;;2.30;;
14074;SDS011;12831;52.392;13.066;2023-05-17T12:49:07;8.98;;;2.50;;
14074;SDS011;12831;52.392;13.066;2023-05-17T12:51:43;8.10;;;1.73;;
14074;SDS011;12831;52.392;13.066;2023-05-17T12:54:14;7.80;;;1.25;;
14074;SDS011;12831;52.392;13.066;2023-05-17T12:56:42;8.73;;;2.05;;
14074;SDS011;12831;52.392;13.066;2023-05-17T13:01:38;8.38;;;1.90;;
14074;SDS011;12831;52.392;13.066;2023-05-17T13:04:07;10.15;;;3.05;;
14074;SDS011;12831;52.392;13.066;2023-05-17T13:06:44;11.05;;;1.88;;
14074;SDS011;12831;52.392;13.066;2023-05-17T13:09:11;7.47;;;2.22;;
14074;SDS011;12831;52.392;13.066;2023-05-17T13:11:37;7.80;;;1.63;;
14074;SDS011;12831;52.392;13.066;2023-05-17T13:14:09;5.75;;;2.00;;
14074;SDS011;12831;52.392;13.066;2023-05-17T13:16:37;7.32;;;1.65;;
14074;SDS011;12831;52.392;13.066;2023-05-17T13:19:13;5.00;;;1.52;;
14074;SDS011;12831;52.392;13.066;2023-05-17T13:21:39;10.30;;;2.53;;
14074;SDS011;12831;52.392;13.066;2023-05-17T13:24:07;7.65;;;1.83;;
14074;SDS011;12831;52.392;13.066;2023-05-17T13:26:33;5.25;;;1.38;;
14074;SDS011;12831;52.392;13.066;2023-05-17T13:28:59;5.50;;;2.17;;
14074;SDS011;12831;52.392;13.066;2023-05-17T13:31:25;4.93;;;1.40;;
14074;SDS011;12831;52.392;13.066;2023-05-17T13:33:51;6.35;;;1.67;;
14074;SDS011;12831;52.392;13.066;2023-05-17T13:36:17;9.63;;;2.15;;
14074;SDS011;12831;52.392;13.066;2023-05-17T13:38:43;9.32;;;2.80;;
14074;SDS011;12831;52.392;13.066;2023-05-17T13:41:09;6.30;;;1.75;;
14074;SDS011;12831;52.392;13.066;2023-05-17T13:43:48;7.78;;;2.35;;
14074;SDS011;12831;52.392;13.066;2023-05-17T13:46:15;7.05;;;1.88;;
14074;SDS011;12831;52.392;13.066;2023-05-17T13:48:41;9.65;;;1.98;;
14074;SDS011;12831;52.392;13.066;2023-05-17T13:51:08;6.22;;;1.58;;
14074;SDS011;12831;52.392;13.066;2023-05-17T13:53:34;12.85;;;2.35;;
14074;SDS011;12831;52.392;13.066;2023-05-17T13:56:03;8.95;;;1.38;;
14074;SDS011;12831;52.392;13.066;2023-05-17T13:58:29;4.80;;;1.40;;
14074;SDS011;12831;52.392;13.066;2023-05-17T14:00:55;7.45;;;1.48;;
14074;SDS011;12831;52.392;13.066;2023-05-17T14:03:21;6.65;;;1.27;;
14074;SDS011;12831;52.392;13.066;2023-05-17T14:05:47;7.57;;;1.80;;
14074;SDS011;12831;52.392;13.066;2023-05-17T14:08:16;5.93;;;2.08;;
14074;SDS011;12831;52.392;13.066;2023-05-17T14:10:42;8.55;;;1.73;;
14074;SDS011;12831;52.392;13.066;2023-05-17T14:13:11;9.77;;;1.50;;
14074;SDS011;12831;52.392;13.066;2023-05-17T14:15:38;8.75;;;1.60;;
14074;SDS011;12831;52.392;13.066;2023-05-17T14:18:04;7.20;;;2.03;;
14074;SDS011;12831;52.392;13.066;2023-05-17T14:20:31;6.45;;;1.50;;
14074;SDS011;12831;52.392;13.066;2023-05-17T14:22:57;6.13;;;1.65;;
14074;SDS011;12831;52.392;13.066;2023-05-17T14:25:24;9.13;;;1.90;;
14074;SDS011;12831;52.392;13.066;2023-05-17T14:27:50;6.18;;;2.63;;
14074;SDS011;12831;52.392;13.066;2023-05-17T14:30:17;5.25;;;1.50;;
14074;SDS011;12831;52.392;13.066;2023-05-17T14:32:43;4.35;;;1.10;;
14074;SDS011;12831;52.392;13.066;2023-05-17T14:35:09;11.00;;;1.60;;
14074;SDS011;12831;52.392;13.066;2023-05-17T14:37:35;7.03;;;1.80;;
14074;SDS011;12831;52.392;13.066;2023-05-17T14:40:01;5.15;;;1.95;;
14074;SDS011;12831;52.392;13.066;2023-05-17T14:42:32;9.60;;;2.47;;
14074;SDS011;12831;52.392;13.066;2023-05-17T14:45:07;5.90;;;2.00;;
14074;SDS011;12831;52.392;13.066;2023-05-17T14:47:33;8.57;;;1.85;;
14074;SDS011;12831;52.392;13.066;2023-05-17T14:50:02;5.07;;;1.92;;
14074;SDS011;12831;52.392;13.066;2023-05-17T14:52:30;7.25;;;2.83;;
14074;SDS011;12831;52.392;13.066;2023-05-17T14:54:56;8.82;;;2.72;;
14074;SDS011;12831;52.392;13.066;2023-05-17T14:57:23;9.93;;;1.55;;